Time;durP1;ratioP1;P1;durP2;ratioP2;P2;SDS_P1;SDS_P2;PMS_P1;PMS_P2;Temp;Humidity;BMP_temperature;BMP_pressure;BME280_temperature;BME280_humidity;BME280_pressure;Samples;Min_cycle;Max_cycle;Signal;HPM_P1;HPM_P2
2023/06/07 00:00:53;;;;;;;13.88;8.57;;;17.00;1.00;;;;;;5059313;28;20033;-64
2023/06/07 00:03:19;;;;;;;12.50;7.63;;;17.00;2.80;;;;;;5058620;28;20075;-64
2023/06/07 00:05:45;;;;;;;12.52;8.68;;;16.90;1.00;;;;;;5041724;28;20037;-64
2023/06/07 00:08:11;;;;;;;13.35;8.43;;;17.00;2.40;;;;;;5058376;28;20040;-64
2023/06/07 00:10:37;;;;;;;15.00;8.77;;;17.00;1.00;;;;;;5059092;28;20037;-64
2023/06/07 00:13:04;;;;;;;11.55;8.20;;;17.00;1.00;;;;;;5058292;28;20033;-65
2023/06/07 00:15:30;;;;;;;15.30;8.27;;;16.90;1.00;;;;;;5059045;28;20297;-64
2023/06/07 00:17:59;;;;;;;14.65;8.10;;;16.90;1.00;;;;;;5058099;28;20048;-64
2023/06/07 00:20:26;;;;;;;16.83;8.90;;;16.80;5.40;;;;;;5058049;28;20427;-64
2023/06/07 00:22:55;;;;;;;13.10;8.20;;;16.80;4.00;;;;;;5041434;28;20032;-64
2023/06/07 00:25:21;;;;;;;13.93;8.45;;;16.80;2.60;;;;;;5025181;28;20051;-64
2023/06/07 00:27:47;;;;;;;11.00;7.93;;;16.80;4.70;;;;;;5058090;28;20033;-64
2023/06/07 00:30:14;;;;;;;13.85;8.20;;;16.70;9.70;;;;;;5041408;28;20139;-63
2023/06/07 00:32:39;;;;;;;14.10;8.63;;;16.80;5.30;;;;;;5058699;28;20419;-64
2023/06/07 00:35:07;;;;;;;16.42;8.60;;;16.70;4.40;;;;;;5025027;28;20393;-64
2023/06/07 00:37:34;;;;;;;17.73;9.00;;;16.70;8.00;;;;;;5041745;28;20040;-64
2023/06/07 00:40:00;;;;;;;13.25;8.38;;;16.70;7.90;;;;;;5057906;28;20033;-64
2023/06/07 00:42:26;;;;;;;11.65;7.85;;;16.70;8.00;;;;;;5058495;28;20053;-63
2023/06/07 00:44:52;;;;;;;16.67;9.02;;;16.60;8.60;;;;;;5058487;28;20051;-63
2023/06/07 00:47:18;;;;;;;13.82;8.25;;;16.60;9.80;;;;;;5058432;28;20245;-63
2023/06/07 00:49:44;;;;;;;12.52;8.38;;;16.60;10.70;;;;;;5058414;28;20041;-64
2023/06/07 00:52:11;;;;;;;12.02;8.00;;;16.50;11.60;;;;;;5024598;28;20052;-64
2023/06/07 00:54:37;;;;;;;13.60;8.63;;;16.50;10.50;;;;;;5057552;28;20043;-64
2023/06/07 00:57:05;;;;;;;14.20;8.10;;;16.40;11.70;;;;;;5024530;28;20444;-63
2023/06/07 00:59:31;;;;;;;15.25;8.45;;;16.40;17.30;;;;;;5058753;28;20419;-64
2023/06/07 01:01:57;;;;;;;12.70;8.40;;;16.40;14.10;;;;;;5040745;28;20067;-64
2023/06/07 01:04:29;;;;;;;12.55;7.85;;;16.30;17.30;;;;;;5057341;28;20048;-64
2023/06/07 01:06:57;;;;;;;13.15;7.93;;;16.40;14.40;;;;;;5057957;28;20048;-64
2023/06/07 01:09:24;;;;;;;13.25;8.57;;;16.30;16.10;;;;;;5057275;28;20041;-63
2023/06/07 01:11:53;;;;;;;13.40;7.63;;;16.20;17.70;;;;;;5057246;28;20036;-64
2023/06/07 01:14:20;;;;;;;13.55;8.48;;;16.20;19.80;;;;;;5057912;28;20025;-64
2023/06/07 01:16:50;;;;;;;12.68;8.23;;;16.20;19.20;;;;;;5057837;28;20119;-64
2023/06/07 01:19:24;;;;;;;13.07;7.90;;;16.20;18.80;;;;;;5058102;28;20289;-65
2023/06/07 01:21:54;;;;;;;14.20;8.27;;;16.20;21.10;;;;;;5057821;28;20268;-64
2023/06/07 01:24:22;;;;;;;14.50;8.43;;;16.20;17.80;;;;;;5056543;28;20300;-64
2023/06/07 01:26:53;;;;;;;14.45;8.20;;;16.10;19.40;;;;;;5056945;28;20130;-64
2023/06/07 01:29:21;;;;;;;13.10;8.23;;;16.20;16.50;;;;;;5057800;28;20071;-63
2023/06/07 01:31:49;;;;;;;14.70;8.88;;;16.20;19.20;;;;;;5057608;28;20099;-63
2023/06/07 01:34:15;;;;;;;11.82;8.50;;;16.20;18.40;;;;;;5056896;28;20025;-64
2023/06/07 01:36:42;;;;;;;10.15;8.07;;;16.20;18.10;;;;;;5056770;28;20029;-64
2023/06/07 01:39:10;;;;;;;18.02;9.32;;;16.20;16.30;;;;;;5040374;28;20300;-64
2023/06/07 01:41:36;;;;;;;11.13;8.00;;;16.00;19.40;;;;;;5056394;28;20063;-67
2023/06/07 01:44:02;;;;;;;15.88;9.00;;;16.00;20.70;;;;;;5057466;28;20111;-64
2023/06/07 01:46:29;;;;;;;11.23;8.15;;;16.00;21.00;;;;;;5057259;28;20040;-63
2023/06/07 01:48:55;;;;;;;17.02;9.15;;;16.00;20.00;;;;;;5039926;28;20120;-64
2023/06/07 01:51:21;;;;;;;12.95;8.32;;;16.00;19.00;;;;;;5040086;28;20025;-64
2023/06/07 01:53:51;;;;;;;12.85;8.45;;;16.00;16.50;;;;;;5040035;28;20064;-64
2023/06/07 01:56:32;;;;;;;14.80;8.40;;;16.10;16.60;;;;;;5057150;28;20032;-64
2023/06/07 01:59:21;;;;;;;13.95;8.68;;;16.00;17.00;;;;;;5056262;28;20091;-64
2023/06/07 02:02:20;;;;;;;15.23;8.43;;;16.00;17.10;;;;;;5056351;28;20355;-64
2023/06/07 02:04:50;;;;;;;12.27;8.05;;;15.90;19.90;;;;;;5057320;28;20021;-64
2023/06/07 02:07:23;;;;;;;15.90;8.73;;;16.00;19.00;;;;;;5056266;28;20071;-64
2023/06/07 02:09:50;;;;;;;13.52;8.45;;;15.80;21.40;;;;;;5039553;28;20118;-64
2023/06/07 02:12:18;;;;;;;14.80;8.32;;;15.80;19.00;;;;;;5039489;28;20095;-64
2023/06/07 02:14:45;;;;;;;15.68;8.32;;;15.90;19.20;;;;;;5056297;28;20033;-64
2023/06/07 02:17:12;;;;;;;12.60;8.38;;;15.80;18.00;;;;;;5023110;28;20021;-64
2023/06/07 02:19:38;;;;;;;10.55;8.05;;;15.90;17.80;;;;;;5039638;28;20056;-64
2023/06/07 02:22:06;;;;;;;12.55;8.07;;;15.70;20.50;;;;;;5056831;28;20328;-64
2023/06/07 02:24:34;;;;;;;11.88;8.07;;;15.70;22.40;;;;;;5056035;28;20059;-64
2023/06/07 02:27:03;;;;;;;11.23;8.25;;;15.70;23.10;;;;;;5056102;28;20029;-64
2023/06/07 02:29:29;;;;;;;13.60;8.77;;;15.70;21.30;;;;;;5057308;28;20388;-63
2023/06/07 02:31:57;;;;;;;10.23;8.18;;;15.70;19.60;;;;;;5039380;28;20051;-64
2023/06/07 02:34:26;;;;;;;11.80;8.23;;;15.70;21.80;;;;;;5024352;28;20029;-64
2023/06/07 02:36:53;;;;;;;14.25;8.82;;;15.60;23.00;;;;;;5041292;28;20066;-64
2023/06/07 02:39:18;;;;;;;13.00;8.07;;;15.70;17.60;;;;;;5061129;28;20059;-64
2023/06/07 02:41:44;;;;;;;14.88;8.68;;;15.70;20.20;;;;;;5060620;28;20048;-64
2023/06/07 02:44:10;;;;;;;11.85;7.95;;;15.60;19.20;;;;;;5059942;28;20075;-64
2023/06/07 02:46:36;;;;;;;12.85;7.97;;;15.60;21.80;;;;;;5060622;28;20466;-64
2023/06/07 02:49:02;;;;;;;11.30;8.25;;;15.60;19.20;;;;;;5059881;28;20063;-64
2023/06/07 02:51:29;;;;;;;12.93;8.00;;;15.60;21.40;;;;;;5059724;28;20131;-64
2023/06/07 02:53:56;;;;;;;13.57;9.07;;;15.50;19.60;;;;;;5060618;28;20479;-64
2023/06/07 02:56:25;;;;;;;12.88;8.10;;;15.50;21.70;;;;;;5043528;28;20103;-64
2023/06/07 02:58:51;;;;;;;13.27;8.50;;;15.50;23.30;;;;;;5059796;28;20029;-64
2023/06/07 03:01:19;;;;;;;17.90;9.10;;;15.40;22.10;;;;;;5026934;28;20090;-64
2023/06/07 03:03:49;;;;;;;10.80;7.72;;;15.40;21.50;;;;;;5043695;28;20033;-64
2023/06/07 03:06:15;;;;;;;14.48;8.48;;;15.50;20.20;;;;;;5042938;28;20285;-64
2023/06/07 03:08:42;;;;;;;12.85;8.35;;;15.50;19.60;;;;;;5059551;28;20029;-64
2023/06/07 03:11:11;;;;;;;10.60;7.55;;;15.50;18.30;;;;;;5043239;28;20091;-64
2023/06/07 03:13:40;;;;;;;16.33;8.50;;;15.50;18.20;;;;;;5043462;28;20029;-64
2023/06/07 03:16:10;;;;;;;15.15;8.77;;;15.50;19.10;;;;;;5043463;28;20043;-63
2023/06/07 03:18:46;;;;;;;17.95;8.68;;;15.50;17.40;;;;;;5059697;28;20041;-64
2023/06/07 03:21:12;;;;;;;11.73;7.93;;;15.30;21.10;;;;;;5010028;28;20412;-64
2023/06/07 03:23:39;;;;;;;13.73;8.57;;;15.30;23.00;;;;;;5026649;28;20043;-64
2023/06/07 03:26:07;;;;;;;13.85;8.35;;;15.30;22.50;;;;;;5042868;28;20056;-64
2023/06/07 03:28:34;;;;;;;11.38;7.85;;;15.40;21.30;;;;;;5042803;28;20112;-65
2023/06/07 03:31:01;;;;;;;15.95;8.50;;;15.40;20.40;;;;;;5059022;28;20068;-63
2023/06/07 03:33:38;;;;;;;12.82;8.13;;;15.20;21.10;;;;;;5058998;28;20413;-63
2023/06/07 03:36:07;;;;;;;13.55;8.18;;;15.10;24.90;;;;;;5058801;28;20068;-65
2023/06/07 03:38:33;;;;;;;17.08;8.77;;;15.20;24.00;;;;;;5058779;28;20040;-65
2023/06/07 03:41:00;;;;;;;12.32;8.32;;;15.20;22.00;;;;;;5058389;28;20050;-64
2023/06/07 03:43:30;;;;;;;14.20;8.43;;;15.30;19.50;;;;;;5058653;28;20037;-64
2023/06/07 03:45:56;;;;;;;15.63;8.75;;;15.30;20.40;;;;;;5058719;28;20396;-64
2023/06/07 03:48:21;;;;;;;14.85;8.15;;;15.30;22.70;;;;;;5058311;28;20071;-64
2023/06/07 03:50:47;;;;;;;15.30;8.93;;;15.40;17.40;;;;;;5042351;28;20301;-63
2023/06/07 03:53:16;;;;;;;14.95;8.80;;;15.50;14.10;;;;;;5042537;28;20051;-64
2023/06/07 03:55:48;;;;;;;14.18;8.75;;;15.30;19.70;;;;;;5042429;28;20059;-64
2023/06/07 03:58:18;;;;;;;11.93;8.60;;;15.20;17.40;;;;;;5058551;28;20025;-64
2023/06/07 04:00:53;;;;;;;15.27;8.55;;;15.20;21.30;;;;;;5058517;28;20041;-64
2023/06/07 04:03:24;;;;;;;15.07;8.65;;;15.20;21.00;;;;;;5042004;28;20289;-65
2023/06/07 04:05:51;;;;;;;15.85;8.13;;;15.20;21.40;;;;;;5059444;28;20024;-64
2023/06/07 04:08:17;;;;;;;13.48;8.93;;;15.30;19.10;;;;;;5058354;28;20119;-64
2023/06/07 04:10:42;;;;;;;14.15;8.05;;;15.20;17.70;;;;;;5059176;28;20124;-65
2023/06/07 04:13:09;;;;;;;13.13;8.40;;;15.00;23.70;;;;;;5059141;28;20036;-63
2023/06/07 04:15:35;;;;;;;13.93;9.00;;;15.00;24.10;;;;;;5058274;28;20095;-64
2023/06/07 04:18:03;;;;;;;16.83;9.23;;;15.00;25.80;;;;;;5058429;28;20447;-64
2023/06/07 04:20:30;;;;;;;16.08;8.27;;;14.80;28.50;;;;;;5058195;28;20033;-64
2023/06/07 04:22:58;;;;;;;18.70;8.90;;;14.90;26.30;;;;;;5025761;28;20305;-64
2023/06/07 04:25:33;;;;;;;12.50;8.50;;;14.80;30.80;;;;;;5041440;28;20048;-64
2023/06/07 04:28:02;;;;;;;18.30;9.32;;;14.90;30.70;;;;;;5058005;28;20057;-64
2023/06/07 04:30:42;;;;;;;13.77;8.27;;;14.90;26.70;;;;;;5041623;28;20033;-64
2023/06/07 04:33:12;;;;;;;16.60;8.30;;;15.00;26.70;;;;;;5026770;28;20086;-64
2023/06/07 04:35:45;;;;;;;16.23;8.98;;;15.10;22.30;;;;;;5057985;28;20021;-65
2023/06/07 04:38:15;;;;;;;17.33;9.60;;;15.10;19.50;;;;;;5041579;28;20132;-64
2023/06/07 04:40:48;;;;;;;14.50;8.95;;;15.20;16.50;;;;;;5057545;28;20052;-64
2023/06/07 04:43:18;;;;;;;12.45;8.70;;;15.30;18.20;;;;;;5041471;28;20047;-64
2023/06/07 04:45:55;;;;;;;14.63;9.45;;;15.30;14.40;;;;;;5057633;28;20058;-65
2023/06/07 04:48:25;;;;;;;17.63;9.13;;;15.30;12.50;;;;;;5057657;28;20021;-64
2023/06/07 04:50:54;;;;;;;14.10;9.32;;;15.20;11.00;;;;;;5057482;28;20031;-65
2023/06/07 04:53:21;;;;;;;19.02;9.48;;;15.30;10.40;;;;;;5040905;28;20107;-64
2023/06/07 04:55:48;;;;;;;11.55;8.88;;;15.30;9.70;;;;;;5057482;28;20357;-65
2023/06/07 04:58:16;;;;;;;17.63;9.27;;;15.30;8.30;;;;;;5057413;28;20040;-64
2023/06/07 05:00:43;;;;;;;18.48;9.60;;;15.20;11.10;;;;;;5056507;28;20025;-63
2023/06/07 05:03:20;;;;;;;12.50;8.60;;;15.10;11.60;;;;;;5025426;28;20051;-64
2023/06/07 05:05:46;;;;;;;18.33;9.30;;;15.20;12.50;;;;;;5057174;28;20043;-64
2023/06/07 05:08:12;;;;;;;12.90;8.88;;;15.30;8.60;;;;;;5057309;28;20308;-65
2023/06/07 05:10:39;;;;;;;13.43;8.70;;;15.30;7.10;;;;;;5040758;28;20021;-65
2023/06/07 05:13:05;;;;;;;14.88;9.05;;;15.40;2.40;;;;;;5057086;28;20035;-64
2023/06/07 05:15:31;;;;;;;14.45;8.77;;;15.50;1.00;;;;;;5040589;28;20061;-64
2023/06/07 05:17:58;;;;;;;16.80;9.38;;;15.40;2.50;;;;;;5040555;28;20048;-64
2023/06/07 05:20:26;;;;;;;14.52;8.93;;;15.50;3.80;;;;;;5057586;28;20115;-64
2023/06/07 05:22:52;;;;;;;15.32;8.88;;;15.60;1.00;;;;;;5040788;28;20071;-65
2023/06/07 05:25:18;;;;;;;14.90;9.00;;;15.70;1.00;;;;;;5057997;28;20048;-65
2023/06/07 05:27:44;;;;;;;15.07;8.90;;;15.70;1.00;;;;;;5056759;28;20041;-65
2023/06/07 05:30:10;;;;;;;14.77;8.98;;;15.70;1.00;;;;;;5057034;28;20414;-67
2023/06/07 05:32:38;;;;;;;15.77;8.90;;;15.70;1.00;;;;;;5040319;28;20396;-64
2023/06/07 05:35:04;;;;;;;11.68;8.13;;;15.70;1.00;;;;;;5057542;28;20029;-64
2023/06/07 05:37:31;;;;;;;17.10;9.25;;;15.80;1.00;;;;;;5056673;28;20033;-64
2023/06/07 05:39:57;;;;;;;14.70;9.70;;;15.60;1.00;;;;;;5056705;28;20090;-64
2023/06/07 05:42:24;;;;;;;15.05;8.85;;;15.60;1.00;;;;;;5057054;28;20056;-64
2023/06/07 05:44:50;;;;;;;17.42;9.50;;;15.70;1.00;;;;;;5056548;28;20048;-64
2023/06/07 05:47:20;;;;;;;13.52;9.02;;;15.70;1.00;;;;;;5040092;28;20087;-64
2023/06/07 05:49:47;;;;;;;14.75;9.82;;;15.70;1.00;;;;;;5057336;28;20025;-64
2023/06/07 05:52:16;;;;;;;14.98;8.18;;;15.80;1.00;;;;;;5057240;28;20052;-64
2023/06/07 05:54:49;;;;;;;13.98;8.77;;;16.00;1.00;;;;;;5057155;28;20052;-65
2023/06/07 05:57:15;;;;;;;18.92;9.27;;;16.10;1.00;;;;;;5056365;28;20032;-65
2023/06/07 05:59:41;;;;;;;13.15;8.55;;;16.40;1.00;;;;;;5023333;28;20043;-65
2023/06/07 06:02:07;;;;;;;14.73;8.52;;;16.40;1.00;;;;;;5056367;28;20039;-65
2023/06/07 06:04:33;;;;;;;13.05;8.82;;;16.30;1.00;;;;;;5057082;28;20037;-64
2023/06/07 06:07:00;;;;;;;12.73;8.75;;;16.50;1.00;;;;;;5056177;28;20029;-64
2023/06/07 06:09:27;;;;;;;13.57;8.15;;;16.60;1.00;;;;;;5056794;28;20032;-64
2023/06/07 06:11:55;;;;;;;14.25;8.25;;;16.70;1.00;;;;;;5055970;28;20052;-65
2023/06/07 06:14:25;;;;;;;14.95;8.00;;;16.80;1.00;;;;;;5056164;28;20032;-64
2023/06/07 06:16:51;;;;;;;13.75;8.60;;;16.70;1.00;;;;;;5039608;28;20048;-65
2023/06/07 06:19:17;;;;;;;15.23;8.02;;;16.50;1.00;;;;;;5056065;28;20449;-65
2023/06/07 06:21:42;;;;;;;15.02;8.23;;;16.50;1.00;;;;;;5056608;28;20116;-65
2023/06/07 06:24:08;;;;;;;13.63;8.18;;;16.40;1.00;;;;;;5055954;28;20041;-64
2023/06/07 06:26:34;;;;;;;17.30;9.40;;;16.50;1.00;;;;;;5056699;28;20059;-69
2023/06/07 06:29:00;;;;;;;15.30;7.80;;;16.50;1.00;;;;;;5056690;28;20028;-64
2023/06/07 06:31:26;;;;;;;13.13;8.30;;;16.70;1.00;;;;;;5055962;28;20033;-70
2023/06/07 06:33:52;;;;;;;13.40;7.93;;;17.00;1.00;;;;;;5056155;28;20036;-70
2023/06/07 06:36:20;;;;;;;14.05;8.20;;;17.10;1.00;;;;;;5056739;28;20043;-70
2023/06/07 06:38:46;;;;;;;17.27;8.07;;;17.40;1.00;;;;;;5056100;28;20116;-70
2023/06/07 06:41:13;;;;;;;11.60;7.38;;;17.90;1.00;;;;;;5055831;28;20055;-70
2023/06/07 06:43:39;;;;;;;13.90;8.35;;;18.30;1.00;;;;;;5056723;28;20041;-69
2023/06/07 06:46:05;;;;;;;12.13;6.82;;;18.60;1.00;;;;;;5055968;28;20037;-70
2023/06/07 06:48:31;;;;;;;13.68;7.68;;;18.80;1.00;;;;;;5039352;28;20063;-69
2023/06/07 06:50:57;;;;;;;15.63;7.60;;;18.70;1.00;;;;;;5056055;28;20054;-70
2023/06/07 06:53:22;;;;;;;15.85;6.85;;;18.80;1.00;;;;;;5056587;28;20392;-70
2023/06/07 06:55:48;;;;;;;12.63;6.72;;;19.00;1.00;;;;;;5056873;28;20067;-70
2023/06/07 06:58:15;;;;;;;12.90;7.22;;;19.10;1.00;;;;;;5055894;28;20308;-70
2023/06/07 07:00:41;;;;;;;11.13;7.47;;;18.80;1.00;;;;;;5056450;28;20324;-70
2023/06/07 07:03:07;;;;;;;14.52;7.55;;;18.90;1.00;;;;;;5055754;28;20041;-70
2023/06/07 07:05:33;;;;;;;12.52;7.05;;;19.00;1.00;;;;;;5055521;28;20040;-70
2023/06/07 07:07:59;;;;;;;13.93;8.20;;;18.90;1.00;;;;;;5056636;28;20059;-70
2023/06/07 07:10:25;;;;;;;12.00;7.40;;;18.70;1.00;;;;;;5056385;28;20033;-70
2023/06/07 07:12:51;;;;;;;13.73;7.63;;;18.80;1.00;;;;;;5055977;28;20083;-70
2023/06/07 07:15:17;;;;;;;13.05;7.78;;;18.60;1.00;;;;;;5039051;28;20037;-70
2023/06/07 07:17:48;;;;;;;12.82;8.43;;;18.30;1.00;;;;;;5055718;28;20025;-70
2023/06/07 07:20:15;;;;;;;11.52;7.88;;;18.20;1.00;;;;;;5055559;28;20033;-59
2023/06/07 07:22:41;;;;;;;15.35;7.78;;;18.20;1.00;;;;;;5056582;28;20033;-60
2023/06/07 07:25:07;;;;;;;11.95;7.78;;;18.20;1.00;;;;;;5042781;28;20099;-60
2023/06/07 07:27:33;;;;;;;9.93;7.03;;;18.20;1.00;;;;;;5059456;28;20407;-59
2023/06/07 07:30:00;;;;;;;14.27;8.13;;;18.40;1.00;;;;;;5060279;28;20067;-58
2023/06/07 07:32:26;;;;;;;11.70;7.63;;;18.50;1.00;;;;;;5059919;28;20029;-59
2023/06/07 07:34:52;;;;;;;13.55;8.10;;;18.60;1.00;;;;;;5059866;28;20036;-59
2023/06/07 07:37:19;;;;;;;13.65;8.02;;;18.80;1.00;;;;;;5059826;28;20124;-59
2023/06/07 07:39:45;;;;;;;12.68;8.25;;;18.80;1.00;;;;;;5059089;28;20035;-59
2023/06/07 07:42:11;;;;;;;15.93;8.18;;;18.80;1.00;;;;;;5059532;28;20124;-61
2023/06/07 07:44:37;;;;;;;15.57;8.05;;;18.70;1.00;;;;;;5060135;28;20056;-58
2023/06/07 07:47:05;;;;;;;16.08;8.45;;;18.70;1.00;;;;;;5059228;28;20111;-61
2023/06/07 07:49:31;;;;;;;11.02;7.75;;;18.90;1.00;;;;;;5058747;28;20032;-59
2023/06/07 07:51:57;;;;;;;14.40;8.48;;;18.90;1.00;;;;;;5042094;28;20116;-59
2023/06/07 07:54:23;;;;;;;11.05;7.45;;;18.90;1.00;;;;;;5043047;28;20056;-59
2023/06/07 07:56:49;;;;;;;15.30;7.88;;;19.00;1.00;;;;;;5059961;28;20087;-59
2023/06/07 07:59:15;;;;;;;13.45;8.57;;;19.30;1.00;;;;;;5059251;28;20282;-59
2023/06/07 08:01:41;;;;;;;12.77;8.05;;;19.40;1.00;;;;;;5059285;28;20028;-59
2023/06/07 08:04:06;;;;;;;10.98;7.53;;;19.30;1.00;;;;;;5059172;28;20033;-59
2023/06/07 08:06:32;;;;;;;12.75;7.55;;;19.40;1.00;;;;;;5059655;28;20316;-69
2023/06/07 08:08:58;;;;;;;11.90;7.57;;;19.60;1.00;;;;;;5058581;28;20451;-70
2023/06/07 08:11:25;;;;;;;10.10;6.63;;;19.60;1.00;;;;;;5058610;28;20120;-68
2023/06/07 08:13:51;;;;;;;13.68;7.80;;;19.60;1.00;;;;;;5059201;28;20384;-67
2023/06/07 08:16:17;;;;;;;11.55;7.80;;;19.70;1.00;;;;;;5059248;28;20063;-69
2023/06/07 08:18:49;;;;;;;14.88;8.20;;;19.70;1.00;;;;;;5059078;28;20036;-68
2023/06/07 08:21:15;;;;;;;13.77;7.47;;;19.90;1.00;;;;;;5058812;28;20045;-67
2023/06/07 08:23:43;;;;;;;14.40;7.63;;;20.20;1.00;;;;;;5059059;28;20040;-68
2023/06/07 08:26:09;;;;;;;13.63;8.18;;;20.20;1.00;;;;;;5042561;28;20056;-68
2023/06/07 08:28:35;;;;;;;14.88;7.60;;;20.20;1.00;;;;;;5059024;28;20037;-68
2023/06/07 08:31:01;;;;;;;10.02;7.35;;;20.00;1.00;;;;;;5059096;28;20395;-66
2023/06/07 08:33:27;;;;;;;13.98;8.25;;;20.10;1.00;;;;;;5057272;28;20037;-69
2023/06/07 08:35:53;;;;;;;12.98;7.65;;;20.20;1.00;;;;;;5040771;28;20090;-67
2023/06/07 08:38:19;;;;;;;9.82;6.95;;;20.20;1.00;;;;;;5058920;28;20033;-67
2023/06/07 08:40:45;;;;;;;12.70;7.68;;;20.40;1.00;;;;;;5058890;28;20052;-68
2023/06/07 08:43:11;;;;;;;14.45;7.57;;;20.60;1.00;;;;;;5041216;28;20047;-65
2023/06/07 08:45:38;;;;;;;12.40;7.57;;;20.60;1.00;;;;;;5057936;28;20412;-69
2023/06/07 08:48:06;;;;;;;11.90;7.45;;;20.50;1.00;;;;;;5058385;28;20033;-68
2023/06/07 08:50:35;;;;;;;14.68;7.60;;;20.70;1.00;;;;;;5058334;28;20071;-69
2023/06/07 08:53:07;;;;;;;15.95;7.53;;;20.60;1.00;;;;;;5057676;28;20051;-69
2023/06/07 08:55:34;;;;;;;13.65;7.28;;;20.70;1.00;;;;;;5058558;28;20057;-69
2023/06/07 08:58:00;;;;;;;14.13;7.85;;;20.90;1.00;;;;;;5057608;28;20032;-69
2023/06/07 09:00:27;;;;;;;19.45;11.23;;;20.80;1.00;;;;;;5058238;28;20032;-68
2023/06/07 09:02:53;;;;;;;14.75;7.50;;;20.90;1.00;;;;;;5058215;28;20044;-70
2023/06/07 09:05:19;;;;;;;13.88;7.75;;;21.00;1.00;;;;;;5041489;28;20292;-69
2023/06/07 09:07:45;;;;;;;13.32;7.93;;;21.20;1.00;;;;;;5057990;28;20423;-69
2023/06/07 09:10:13;;;;;;;15.40;8.15;;;21.40;1.00;;;;;;5057417;28;20033;-69
2023/06/07 09:12:40;;;;;;;11.20;7.50;;;21.70;99.90;;;;;;5040893;28;20053;-68
2023/06/07 09:15:15;;;;;;;13.30;7.28;;;21.70;1.00;;;;;;5057972;28;20111;-68
2023/06/07 09:17:55;;;;;;;14.32;7.85;;;21.70;99.90;;;;;;5057209;28;20029;-68
2023/06/07 09:20:23;;;;;;;13.70;7.82;;;21.80;99.90;;;;;;5058301;28;20086;-65
2023/06/07 09:23:09;;;;;;;13.07;7.18;;;22.00;99.90;;;;;;5057884;28;20029;-70
2023/06/07 09:25:37;;;;;;;28.67;8.38;;;22.20;99.90;;;;;;5058643;28;20029;-64
2023/06/07 09:28:10;;;;;;;12.40;7.60;;;22.20;99.90;;;;;;5057510;28;20021;-64
2023/06/07 09:30:52;;;;;;;12.82;7.25;;;22.40;99.90;;;;;;5056881;28;20098;-70
2023/06/07 09:33:33;;;;;;;11.30;6.47;;;22.30;99.90;;;;;;5057885;28;20186;-70
2023/06/07 09:36:08;;;;;;;11.38;6.60;;;22.10;99.90;;;;;;5057768;28;20036;-70
2023/06/07 09:38:35;;;;;;;10.75;6.50;;;22.20;99.90;;;;;;5057706;28;20308;-69
2023/06/07 09:41:02;;;;;;;12.93;7.65;;;22.20;99.90;;;;;;5057333;28;20128;-69
2023/06/07 09:43:49;;;;;;;12.57;7.18;;;22.40;99.90;;;;;;5057408;28;20112;-68
2023/06/07 09:46:16;;;;;;;13.93;6.82;;;22.30;99.90;;;;;;5057476;28;20040;-69
2023/06/07 09:48:53;;;;;;;12.68;7.45;;;22.50;99.90;;;;;;5057314;28;20089;-69
2023/06/07 09:51:20;;;;;;;8.48;6.20;;;22.60;99.90;;;;;;5040058;28;20048;-69
2023/06/07 09:53:53;;;;;;;11.65;6.75;;;22.70;11.60;;;;;;5056589;28;20052;-69
2023/06/07 09:56:19;;;;;;;;;;;23.20;1.00;;;;;;5057131;28;20036;-69
2023/06/07 09:58:49;;;;;;;12.35;7.25;;;23.50;1.00;;;;;;5057169;28;19904;-69
2023/06/07 10:01:33;;;;;;;13.27;6.18;;;23.70;99.90;;;;;;5056605;28;20033;-69
2023/06/07 10:04:01;;;;;;;11.02;6.05;;;23.60;1.00;;;;;;5057328;28;20375;-70
2023/06/07 10:06:34;;;;;;;9.73;6.40;;;23.70;99.90;;;;;;5057672;28;20069;-69
2023/06/07 10:09:03;;;;;;;10.07;6.38;;;23.90;1.00;;;;;;5057218;28;20033;-70
2023/06/07 10:11:34;;;;;;;11.07;6.10;;;24.10;99.90;;;;;;5056399;28;20143;-69
2023/06/07 10:14:05;;;;;;;12.10;6.22;;;24.10;1.00;;;;;;5057080;28;20025;-70
2023/06/07 10:16:38;;;;;;;11.52;6.63;;;24.10;1.00;;;;;;5056438;28;20353;-69
2023/06/07 10:19:12;;;;;;;13.70;6.38;;;24.10;1.00;;;;;;5056970;28;20120;-69
2023/06/07 10:21:40;;;;;;;14.13;6.72;;;23.70;1.00;;;;;;5056370;28;20036;-69
2023/06/07 10:24:12;;;;;;;9.77;6.05;;;23.70;1.00;;;;;;5057060;28;20032;-69
2023/06/07 10:26:55;;;;;;;9.57;6.10;;;24.00;99.90;;;;;;5056888;28;20078;-68
2023/06/07 10:29:28;;;;;;;10.85;6.40;;;24.10;1.00;;;;;;5039482;28;20119;-69
2023/06/07 10:32:07;;;;;;;8.43;5.97;;;24.30;1.00;;;;;;5057337;28;20048;-70
2023/06/07 10:34:36;;;;;;;8.57;6.20;;;24.60;1.00;;;;;;5039478;28;20025;-71
2023/06/07 10:37:02;;;;;;;11.60;6.45;;;24.80;15.20;;;;;;5056936;28;20040;-69
2023/06/07 10:39:28;;;;;;;12.60;7.40;;;24.80;1.00;;;;;;5056777;28;20055;-69
2023/06/07 10:41:55;;;;;;;10.20;6.22;;;25.00;1.00;;;;;;5056843;28;20049;-68
2023/06/07 10:44:21;;;;;;;8.60;6.07;;;25.00;19.90;;;;;;5039910;28;20025;-69
2023/06/07 10:46:47;;;;;;;11.23;6.78;;;25.10;1.00;;;;;;5057005;28;20112;-71
2023/06/07 10:49:35;;;;;;;10.98;6.50;;;25.40;1.00;;;;;;5056028;28;20040;-68
2023/06/07 10:52:02;;;;;;;11.18;6.25;;;25.50;1.00;;;;;;5057389;28;20293;-69
2023/06/07 10:54:32;;;;;;;10.90;6.30;;;25.40;1.00;;;;;;5056905;28;20033;-69
2023/06/07 10:56:59;;;;;;;13.50;6.00;;;25.80;99.90;;;;;;5056397;28;20065;-70
2023/06/07 10:59:26;;;;;;;15.73;5.88;;;25.90;99.90;;;;;;5060954;28;20286;-70
2023/06/07 11:01:54;;;;;;;7.30;5.68;;;25.90;44.40;;;;;;5059883;28;20025;-70
2023/06/07 11:04:37;;;;;;;10.95;5.43;;;25.90;1.00;;;;;;5059762;28;20029;-70
2023/06/07 11:07:30;;;;;;;7.75;5.88;;;27.10;99.90;;;;;;5061109;28;20292;-70
2023/06/07 11:10:05;;;;;;;9.48;5.10;;;27.90;1.00;;;;;;5061084;28;20040;-71
2023/06/07 11:12:45;;;;;;;9.85;5.65;;;29.60;99.90;;;;;;5043595;28;20040;-70
2023/06/07 11:15:17;;;;;;;6.93;4.50;;;30.70;1.00;;;;;;5059906;28;20029;-70
2023/06/07 11:18:05;;;;;;;10.98;5.80;;;32.00;1.00;;;;;;5059899;28;20075;-70
2023/06/07 11:20:39;;;;;;;8.73;4.80;;;33.10;99.90;;;;;;5060534;28;20033;-69
2023/06/07 11:23:25;;;;;;;10.48;5.65;;;33.60;99.90;;;;;;5060612;28;20033;-69
2023/06/07 11:25:54;;;;;;;5.72;3.70;;;34.20;99.90;;;;;;5059862;28;20041;-70
2023/06/07 11:28:31;;;;;;;7.40;5.18;;;34.40;99.90;;;;;;5059314;28;20407;-70
2023/06/07 11:30:58;;;;;;;7.57;5.43;;;33.60;64.00;;;;;;5060707;28;20049;-69
2023/06/07 11:33:25;;;;;;;10.05;5.60;;;32.50;79.60;;;;;;5059534;28;20120;-69
2023/06/07 11:35:55;;;;;;;6.57;5.20;;;32.20;91.20;;;;;;5026301;28;20392;-69
2023/06/07 11:38:22;;;;;;;8.25;4.85;;;32.60;90.30;;;;;;5059830;28;20036;-71
2023/06/07 11:40:48;;;;;;;8.32;5.30;;;34.00;48.60;;;;;;5058908;28;20451;-69
2023/06/07 11:43:20;;;;;;;9.38;5.00;;;34.00;19.50;;;;;;5059779;28;20338;-70
2023/06/07 11:45:46;;;;;;;6.95;4.53;;;33.90;1.00;;;;;;5060062;28;20069;-70
2023/06/07 11:48:12;;;;;;;8.85;4.45;;;33.30;1.00;;;;;;5059963;28;20065;-70
2023/06/07 11:50:40;;;;;;;8.98;4.50;;;32.80;1.00;;;;;;5059707;28;20029;-70
2023/06/07 11:53:10;;;;;;;7.00;3.75;;;32.60;1.00;;;;;;5058906;28;20096;-69
2023/06/07 11:55:36;;;;;;;6.18;3.90;;;34.30;1.00;;;;;;5059990;28;20288;-70
2023/06/07 11:58:04;;;;;;;7.13;3.60;;;35.70;1.00;;;;;;5042416;28;20305;-70
2023/06/07 12:00:31;;;;;;;8.73;3.03;;;35.70;1.00;;;;;;5059628;28;20033;-71
2023/06/07 12:03:03;;;;;;;5.00;2.63;;;36.00;1.00;;;;;;5042534;28;20028;-70
2023/06/07 12:05:34;;;;;;;3.95;2.63;;;36.60;1.00;;;;;;5042021;28;20439;-70
2023/06/07 12:08:04;;;;;;;4.50;2.92;;;36.10;1.00;;;;;;5058263;28;20040;-69
2023/06/07 12:10:38;;;;;;;5.50;3.10;;;35.10;1.00;;;;;;5058594;28;20033;-69
2023/06/07 12:13:18;;;;;;;5.38;3.63;;;35.10;1.00;;;;;;5058736;28;20025;-69
2023/06/07 12:15:49;;;;;;;4.35;3.20;;;34.80;1.00;;;;;;5059791;28;20029;-70
2023/06/07 12:18:17;;;;;;;6.30;3.60;;;35.50;1.00;;;;;;5059131;28;20112;-70
2023/06/07 12:20:44;;;;;;;6.22;3.20;;;35.90;1.00;;;;;;5059276;28;20116;-69
2023/06/07 12:23:11;;;;;;;7.68;2.95;;;35.90;1.00;;;;;;5059088;28;20029;-71
2023/06/07 12:25:41;;;;;;;4.13;2.85;;;36.00;1.00;;;;;;5058804;28;20033;-69
2023/06/07 12:28:11;;;;;;;3.75;2.70;;;35.30;1.00;;;;;;5059308;28;20075;-71
2023/06/07 12:30:40;;;;;;;4.60;3.58;;;36.50;1.00;;;;;;5059045;28;20033;-71
2023/06/07 12:33:16;;;;;;;5.82;3.47;;;37.00;1.00;;;;;;5058217;28;20032;-70
2023/06/07 12:35:48;;;;;;;5.88;3.45;;;35.40;1.00;;;;;;5058934;28;20036;-70
2023/06/07 12:38:15;;;;;;;5.75;3.60;;;34.40;1.00;;;;;;5058097;28;20040;-69
2023/06/07 12:40:40;;;;;;;5.78;3.33;;;35.50;1.00;;;;;;5058668;28;20092;-70
2023/06/07 12:43:06;;;;;;;6.68;3.45;;;35.40;1.00;;;;;;5058501;28;20061;-70
2023/06/07 12:45:32;;;;;;;5.15;3.60;;;33.70;1.00;;;;;;5058740;28;20090;-69
2023/06/07 12:47:58;;;;;;;7.50;3.50;;;32.60;1.00;;;;;;5058645;28;20037;-69
2023/06/07 12:50:24;;;;;;;7.75;3.90;;;31.70;1.00;;;;;;5058565;28;20398;-70